createdAt,value
2022-12-16T00:00:09.807Z,22.65
2022-12-16T00:02:36.948Z,18.67
2022-12-16T00:05:04.436Z,18.55
2022-12-16T00:07:31.415Z,20.45
2022-12-16T00:09:58.342Z,19.63
2022-12-16T00:12:25.345Z,18.30
2022-12-16T00:14:53.801Z,16.63
2022-12-16T00:17:22.435Z,13.60
2022-12-16T00:19:52.587Z,12.85
2022-12-16T00:22:19.632Z,13.55
2022-12-16T00:24:46.715Z,14.52
2022-12-16T00:27:13.683Z,14.15
2022-12-16T00:29:40.830Z,14.13
2022-12-16T00:32:08.035Z,11.77
2022-12-16T00:34:35.047Z,13.15
2022-12-16T00:37:02.164Z,13.30
2022-12-16T00:39:29.188Z,14.50
2022-12-16T00:41:59.247Z,13.50
2022-12-16T00:44:26.214Z,13.50
2022-12-16T00:46:53.442Z,14.30
2022-12-16T00:49:21.980Z,14.25
2022-12-16T00:51:49.683Z,15.43
2022-12-16T00:54:17.816Z,15.07
2022-12-16T00:56:44.835Z,15.45
2022-12-16T00:59:11.958Z,13.70
2022-12-16T01:01:39.708Z,13.57
2022-12-16T01:04:07.017Z,14.00
2022-12-16T01:06:33.933Z,14.95
2022-12-16T01:09:08.354Z,13.82
2022-12-16T01:11:36.224Z,14.65
2022-12-16T01:14:03.267Z,13.57
2022-12-16T01:16:30.308Z,14.38
2022-12-16T01:18:57.504Z,13.00
2022-12-16T01:21:24.465Z,12.80
2022-12-16T01:23:51.671Z,13.98
2022-12-16T01:26:22.020Z,14.65
2022-12-16T01:28:50.074Z,14.18
2022-12-16T01:31:19.451Z,14.35
2022-12-16T01:33:46.577Z,15.27
2022-12-16T01:36:13.723Z,15.18
2022-12-16T01:38:42.722Z,14.98
2022-12-16T01:41:10.775Z,14.98
2022-12-16T01:43:39.239Z,15.18
2022-12-16T01:46:09.151Z,15.55
2022-12-16T01:48:43.111Z,15.20
2022-12-16T01:51:23.577Z,15.43
2022-12-16T01:53:56.211Z,15.43
2022-12-16T01:56:27.468Z,15.32
2022-12-16T01:58:55.403Z,15.23
2022-12-16T02:01:23.036Z,14.68
2022-12-16T02:03:52.885Z,14.38
2022-12-16T02:06:21.494Z,15.48
2022-12-16T02:08:55.343Z,16.17
2022-12-16T02:11:47.405Z,15.40
2022-12-16T02:14:48.262Z,15.27
2022-12-16T02:17:31.975Z,15.85
2022-12-16T02:20:08.174Z,15.18
2022-12-16T02:23:10.536Z,16.00
2022-12-16T02:25:53.329Z,17.08
2022-12-16T02:29:00.619Z,14.77
2022-12-16T02:31:35.151Z,15.23
2022-12-16T02:34:27.352Z,15.88
2022-12-16T02:36:54.340Z,17.67
2022-12-16T02:39:29.586Z,16.58
2022-12-16T02:42:17.123Z,15.95
2022-12-16T02:45:00.753Z,16.88
2022-12-16T02:47:29.370Z,15.93
2022-12-16T02:49:56.613Z,16.05
2022-12-16T02:52:30.913Z,17.23
2022-12-16T02:55:02.037Z,15.93
2022-12-16T02:57:53.200Z,16.27
2022-12-16T03:00:22.944Z,16.48
2022-12-16T03:02:59.980Z,15.68
2022-12-16T03:05:48.391Z,16.23
2022-12-16T03:08:30.138Z,15.68
2022-12-16T03:11:04.577Z,16.05
2022-12-16T03:13:37.268Z,15.23
2022-12-16T03:16:07.369Z,16.00
2022-12-16T03:18:35.853Z,14.95
2022-12-16T03:21:06.588Z,15.98
2022-12-16T03:23:44.637Z,16.42
2022-12-16T03:26:19.539Z,15.10
2022-12-16T03:28:56.310Z,15.65
2022-12-16T03:31:58.855Z,15.88
2022-12-16T03:34:32.485Z,15.43
2022-12-16T03:37:09.012Z,16.48
2022-12-16T03:39:41.897Z,16.15
2022-12-16T03:42:10.093Z,16.77
2022-12-16T03:44:37.796Z,15.48
2022-12-16T03:47:05.640Z,15.80
2022-12-16T03:49:32.626Z,14.77
2022-12-16T03:51:59.763Z,16.17
2022-12-16T03:54:27.165Z,15.77
2022-12-16T03:56:54.420Z,16.40
2022-12-16T03:59:21.445Z,15.70
2022-12-16T04:01:48.628Z,16.17
2022-12-16T04:04:16.503Z,16.65
2022-12-16T04:06:43.493Z,16.20
2022-12-16T04:09:10.654Z,15.70
2022-12-16T04:11:56.193Z,16.35
2022-12-16T04:14:41.852Z,16.80
2022-12-16T04:17:31.890Z,15.63
2022-12-16T04:20:18.238Z,16.10
2022-12-16T04:23:03.783Z,15.75
2022-12-16T04:25:36.509Z,15.68
2022-12-16T04:28:03.964Z,16.88
2022-12-16T04:30:34.910Z,17.05
2022-12-16T04:33:25.874Z,16.58
2022-12-16T04:36:11.712Z,16.48
2022-12-16T04:38:57.973Z,16.33
2022-12-16T04:41:43.909Z,16.02
2022-12-16T04:44:33.732Z,16.42
2022-12-16T04:47:20.375Z,16.17
2022-12-16T04:52:51.793Z,16.63
2022-12-16T04:55:37.393Z,17.35
2022-12-16T04:58:24.492Z,16.20
2022-12-16T05:01:11.369Z,16.98
2022-12-16T05:03:57.426Z,16.48
2022-12-16T05:06:43.716Z,16.63
2022-12-16T05:09:29.486Z,17.75
2022-12-16T05:12:14.979Z,18.77
2022-12-16T05:15:00.762Z,17.37
2022-12-16T05:17:46.739Z,16.17
2022-12-16T05:20:32.304Z,19.13
2022-12-16T05:23:17.750Z,17.57
2022-12-16T05:26:03.305Z,16.90
2022-12-16T05:28:49.169Z,18.65
2022-12-16T05:31:35.117Z,17.88
2022-12-16T05:34:20.624Z,17.92
2022-12-16T05:37:06.329Z,18.77
2022-12-16T05:39:51.890Z,20.40
2022-12-16T05:42:37.354Z,17.83
2022-12-16T05:45:23.504Z,19.83
2022-12-16T05:48:09.075Z,18.13
2022-12-16T05:50:55.358Z,18.00
2022-12-16T05:53:41.561Z,18.02
2022-12-16T05:56:27.062Z,19.00
2022-12-16T05:59:12.651Z,18.95
2022-12-16T06:02:04.129Z,19.50
2022-12-16T06:04:50.047Z,18.17
2022-12-16T06:07:35.793Z,18.92
2022-12-16T06:10:23.294Z,19.58
2022-12-16T06:13:13.390Z,21.15
2022-12-16T06:16:02.492Z,19.40
2022-12-16T06:18:50.867Z,19.15
2022-12-16T06:21:36.709Z,20.35
2022-12-16T06:24:22.493Z,19.38
2022-12-16T06:27:08.014Z,18.33
2022-12-16T06:29:53.513Z,19.47
2022-12-16T06:32:38.915Z,18.55
2022-12-16T06:35:24.712Z,18.67
2022-12-16T06:38:10.119Z,17.85
2022-12-16T06:40:55.678Z,20.02
2022-12-16T06:43:41.172Z,18.50
2022-12-16T06:46:29.161Z,19.25
2022-12-16T06:49:14.906Z,21.17
2022-12-16T06:52:00.451Z,20.80
2022-12-16T06:54:46.910Z,19.83
2022-12-16T06:57:32.447Z,19.35
2022-12-16T07:00:18.119Z,20.07
2022-12-16T07:03:04.750Z,20.55
2022-12-16T07:05:50.240Z,20.20
2022-12-16T07:08:35.615Z,19.38
2022-12-16T07:11:21.021Z,20.38
2022-12-16T07:14:06.561Z,20.08
2022-12-16T07:16:52.485Z,20.27
2022-12-16T07:19:38.582Z,20.35
2022-12-16T07:22:24.345Z,24.27
2022-12-16T07:25:09.935Z,21.85
2022-12-16T07:27:55.620Z,22.50
2022-12-16T07:30:41.149Z,22.10
2022-12-16T07:33:27.937Z,20.77
2022-12-16T07:36:14.024Z,21.80
2022-12-16T07:38:59.664Z,20.25
2022-12-16T07:41:45.411Z,20.60
2022-12-16T07:44:32.106Z,20.95
2022-12-16T07:47:17.855Z,20.30
2022-12-16T07:50:03.526Z,21.25
2022-12-16T07:52:49.094Z,20.70
2022-12-16T07:55:35.003Z,21.20
2022-12-16T07:58:20.631Z,22.15
2022-12-16T08:01:09.461Z,23.03
2022-12-16T08:03:56.137Z,21.40
2022-12-16T08:06:42.237Z,21.92
2022-12-16T08:09:28.370Z,21.53
2022-12-16T08:15:00.244Z,21.08
2022-12-16T08:17:46.274Z,20.60
2022-12-16T08:20:31.859Z,23.98
2022-12-16T08:23:18.374Z,22.17
2022-12-16T08:26:04.823Z,23.55
2022-12-16T08:28:50.433Z,23.45
2022-12-16T08:31:36.086Z,23.73
2022-12-16T08:34:22.538Z,22.90
2022-12-16T08:37:08.002Z,22.40
2022-12-16T08:40:10.996Z,22.92
2022-12-16T08:43:00.329Z,23.92
2022-12-16T08:45:46.066Z,24.88
2022-12-16T08:48:32.362Z,25.98
2022-12-16T08:51:23.099Z,24.98
2022-12-16T08:54:09.255Z,26.17
2022-12-16T08:56:54.725Z,25.85
2022-12-16T09:02:30.677Z,24.87
2022-12-16T09:05:16.404Z,25.80
2022-12-16T09:08:01.974Z,25.90
2022-12-16T09:10:47.959Z,25.37
2022-12-16T09:13:35.057Z,25.63
2022-12-16T09:16:21.275Z,24.23
2022-12-16T09:19:06.857Z,22.95
2022-12-16T09:21:54.668Z,25.10
2022-12-16T09:24:42.058Z,25.55
2022-12-16T09:27:27.955Z,25.30
2022-12-16T09:30:13.650Z,25.02
2022-12-16T09:33:01.159Z,23.67
2022-12-16T09:35:47.750Z,25.38
2022-12-16T09:38:33.714Z,23.90
2022-12-16T09:41:43.065Z,24.33
2022-12-16T09:44:56.630Z,25.13
2022-12-16T09:47:45.011Z,22.83
2022-12-16T09:50:48.906Z,24.65
2022-12-16T09:53:39.255Z,24.98
2022-12-16T09:56:32.618Z,23.60
2022-12-16T09:59:21.658Z,25.63
2022-12-16T10:02:09.367Z,24.88
2022-12-16T10:04:55.378Z,26.08
2022-12-16T10:07:41.958Z,24.85
2022-12-16T10:10:49.688Z,24.63
2022-12-16T10:13:53.021Z,23.42
2022-12-16T10:17:01.501Z,24.13
2022-12-16T10:19:50.010Z,22.60
2022-12-16T10:23:13.726Z,24.23
2022-12-16T10:26:09.242Z,23.20
2022-12-16T10:29:06.608Z,22.60
2022-12-16T10:31:55.282Z,23.98
2022-12-16T10:34:49.416Z,24.15
2022-12-16T10:37:46.849Z,27.55
2022-12-16T10:40:37.224Z,32.13
2022-12-16T10:43:55.538Z,34.95
2022-12-16T10:46:45.346Z,36.17
2022-12-16T10:49:34.056Z,36.67
2022-12-16T10:52:20.672Z,28.90
2022-12-16T10:58:34.218Z,28.00
2022-12-16T11:01:42.798Z,28.52
2022-12-16T11:04:50.888Z,28.63
2022-12-16T11:08:11.488Z,30.90
2022-12-16T11:11:01.910Z,30.08
2022-12-16T11:13:54.726Z,29.88
2022-12-16T11:16:43.340Z,29.70
2022-12-16T11:19:44.789Z,29.95
2022-12-16T11:22:39.624Z,30.92
2022-12-16T11:25:36.942Z,29.98
2022-12-16T11:28:34.217Z,28.38
2022-12-16T11:31:25.267Z,32.33
2022-12-16T11:34:12.767Z,30.35
2022-12-16T11:37:00.408Z,29.42
2022-12-16T11:39:50.059Z,30.70
2022-12-16T11:42:43.945Z,29.45
2022-12-16T11:45:38.968Z,29.27
2022-12-16T11:48:55.879Z,30.23
2022-12-16T11:51:43.341Z,30.70
2022-12-16T11:54:43.076Z,31.75
2022-12-16T11:57:43.887Z,29.73
2022-12-16T12:00:34.469Z,27.90
2022-12-16T12:03:32.110Z,28.10
2022-12-16T12:06:24.925Z,28.30
2022-12-16T12:09:38.339Z,28.50
2022-12-16T12:12:35.928Z,27.50
2022-12-16T12:15:39.566Z,28.60
2022-12-16T12:18:51.862Z,29.45
2022-12-16T12:21:44.338Z,29.20
2022-12-16T12:24:53.564Z,30.15
2022-12-16T12:27:57.578Z,28.60
2022-12-16T12:30:43.557Z,27.80
2022-12-16T12:33:58.647Z,29.35
2022-12-16T12:37:00.205Z,29.42
2022-12-16T12:39:58.134Z,28.92
2022-12-16T12:43:12.553Z,30.02
2022-12-16T12:46:10.128Z,29.20
2022-12-16T12:49:19.075Z,29.88
2022-12-16T12:52:15.601Z,31.17
2022-12-16T12:55:24.488Z,31.02
2022-12-16T12:58:11.907Z,29.48
2022-12-16T13:01:12.335Z,30.52
2022-12-16T13:04:10.304Z,28.80
2022-12-16T13:06:57.231Z,30.02
2022-12-16T13:09:47.577Z,30.42
2022-12-16T13:12:33.023Z,29.45
2022-12-16T13:15:23.294Z,30.15
2022-12-16T13:18:18.047Z,30.98
2022-12-16T13:21:05.610Z,30.98
2022-12-16T13:23:54.583Z,31.40
2022-12-16T13:26:42.786Z,31.40
2022-12-16T13:29:42.560Z,30.27
2022-12-16T13:32:38.409Z,29.73
2022-12-16T13:35:27.112Z,29.98
2022-12-16T13:38:50.232Z,30.48
2022-12-16T13:41:45.320Z,32.95
2022-12-16T13:45:01.103Z,31.67
2022-12-16T13:47:59.165Z,32.35
2022-12-16T13:51:01.502Z,29.92
2022-12-16T13:53:49.989Z,31.67
2022-12-16T13:56:42.410Z,31.48
2022-12-16T13:59:39.048Z,31.48
2022-12-16T14:02:36.226Z,29.80
2022-12-16T14:05:23.099Z,28.50
2022-12-16T14:11:01.105Z,30.15
2022-12-16T14:13:57.659Z,29.48
2022-12-16T14:17:30.513Z,31.65
2022-12-16T14:20:16.841Z,31.50
2022-12-16T14:23:32.422Z,30.40
2022-12-16T14:26:23.744Z,31.67
2022-12-16T14:29:09.301Z,30.55
2022-12-16T14:32:03.103Z,32.28
2022-12-16T14:34:52.243Z,34.67
2022-12-16T14:38:08.768Z,32.00
2022-12-16T14:40:54.289Z,32.15
2022-12-16T14:43:44.883Z,31.17
2022-12-16T14:46:51.024Z,30.70
2022-12-16T14:49:42.738Z,29.83
2022-12-16T14:53:15.158Z,29.23
2022-12-16T14:56:00.738Z,29.33
2022-12-16T14:58:46.963Z,30.53
2022-12-16T15:01:45.108Z,30.15
2022-12-16T15:04:39.351Z,30.23
2022-12-16T15:07:31.694Z,31.33
2022-12-16T15:10:19.288Z,31.23
2022-12-16T15:13:06.953Z,30.35
2022-12-16T15:16:04.523Z,30.67
2022-12-16T15:19:01.375Z,32.05
2022-12-16T15:21:47.201Z,31.45
2022-12-16T15:24:38.748Z,30.98
2022-12-16T15:27:40.471Z,29.02
2022-12-16T15:30:51.572Z,29.67
2022-12-16T15:33:40.317Z,30.27
2022-12-16T15:36:43.258Z,30.20
2022-12-16T15:39:55.603Z,29.88
2022-12-16T15:42:41.468Z,30.95
2022-12-16T15:46:06.696Z,31.60
2022-12-16T15:48:54.090Z,28.88
2022-12-16T15:51:50.093Z,30.52
2022-12-16T15:54:43.615Z,28.23
2022-12-16T15:57:53.933Z,27.73
2022-12-16T16:00:44.462Z,25.95
2022-12-16T16:03:48.794Z,28.65
2022-12-16T16:06:44.813Z,27.42
2022-12-16T16:09:38.465Z,28.33
2022-12-16T16:12:24.466Z,28.98
2022-12-16T16:15:09.991Z,28.58
2022-12-16T16:17:56.168Z,29.83
2022-12-16T16:20:41.616Z,28.27
2022-12-16T16:23:28.624Z,30.13
2022-12-16T16:26:15.310Z,29.63
2022-12-16T16:29:01.606Z,29.33
2022-12-16T16:31:47.278Z,29.38
2022-12-16T16:34:32.722Z,27.98
2022-12-16T16:37:18.821Z,27.98
2022-12-16T16:40:04.279Z,29.42
2022-12-16T16:42:50.015Z,33.30
2022-12-16T16:45:35.864Z,31.20
2022-12-16T16:48:34.576Z,34.33
2022-12-16T16:51:21.572Z,36.90
2022-12-16T16:54:08.148Z,35.22
2022-12-16T16:59:43.686Z,30.17
2022-12-16T17:02:41.141Z,29.67
2022-12-16T17:05:30.698Z,30.50
2022-12-16T17:08:16.793Z,29.60
2022-12-16T17:11:02.806Z,29.10
2022-12-16T17:13:49.037Z,28.38
2022-12-16T17:16:45.397Z,27.83
2022-12-16T17:19:31.005Z,26.88
2022-12-16T17:22:16.523Z,28.33
2022-12-16T17:25:02.006Z,28.70
2022-12-16T17:27:47.548Z,27.23
2022-12-16T17:30:40.687Z,28.95
2022-12-16T17:33:29.404Z,28.02
2022-12-16T17:36:14.986Z,29.25
2022-12-16T17:39:02.760Z,29.98
2022-12-16T17:41:50.144Z,28.52
2022-12-16T17:44:36.152Z,28.58
2022-12-16T17:47:22.231Z,27.60
2022-12-16T17:50:08.517Z,28.13
2022-12-16T17:52:54.307Z,28.90
2022-12-16T17:55:39.789Z,28.60
2022-12-16T17:58:25.519Z,31.35
2022-12-16T18:01:11.349Z,27.20
2022-12-16T18:03:57.328Z,28.38
2022-12-16T18:06:42.906Z,30.03
2022-12-16T18:09:28.411Z,29.40
2022-12-16T18:12:13.883Z,31.27
2022-12-16T18:15:00.373Z,29.42
2022-12-16T18:17:45.840Z,33.67
2022-12-16T18:20:31.369Z,32.00
2022-12-16T18:23:16.901Z,31.67
2022-12-16T18:26:03.312Z,32.75
2022-12-16T18:28:52.741Z,31.02
2022-12-16T18:31:40.783Z,31.55
2022-12-16T18:34:26.740Z,32.35
2022-12-16T18:37:12.512Z,31.75
2022-12-16T18:39:58.096Z,31.92
2022-12-16T18:42:48.160Z,32.88
2022-12-16T18:45:38.331Z,31.52
2022-12-16T18:48:23.900Z,33.53
2022-12-16T18:51:14.036Z,35.03
2022-12-16T18:54:00.151Z,33.17
2022-12-16T18:56:46.313Z,31.70
2022-12-16T18:59:32.699Z,34.65
2022-12-16T19:02:18.782Z,34.10
2022-12-16T19:05:04.524Z,35.63
2022-12-16T19:07:51.125Z,35.22
2022-12-16T19:13:23.280Z,29.17
2022-12-16T19:16:16.030Z,29.40
2022-12-16T19:19:02.102Z,29.58
2022-12-16T19:24:54.957Z,29.48
2022-12-16T19:27:42.389Z,31.30
2022-12-16T19:30:48.609Z,30.77
2022-12-16T19:33:34.874Z,31.02
2022-12-16T19:36:20.485Z,29.97
2022-12-16T19:39:05.847Z,29.67
2022-12-16T19:41:51.686Z,28.02
2022-12-16T19:44:38.121Z,29.33
2022-12-16T19:47:24.099Z,28.88
2022-12-16T19:50:10.146Z,29.15
2022-12-16T19:52:56.092Z,27.95
2022-12-16T19:55:42.640Z,28.13
2022-12-16T19:58:39.144Z,28.02
2022-12-16T20:01:28.183Z,27.67
2022-12-16T20:04:14.297Z,29.17
2022-12-16T20:06:59.805Z,28.42
2022-12-16T20:09:45.695Z,27.52
2022-12-16T20:12:31.391Z,29.00
2022-12-16T20:15:17.066Z,27.65
2022-12-16T20:18:04.567Z,28.08
2022-12-16T20:20:50.124Z,27.58
2022-12-16T20:23:35.490Z,27.83
2022-12-16T20:26:21.497Z,28.30
2022-12-16T20:29:07.565Z,27.60
2022-12-16T20:31:53.044Z,28.02
2022-12-16T20:34:41.510Z,29.10
2022-12-16T20:37:27.118Z,28.77
2022-12-16T20:40:13.142Z,28.37
2022-12-16T20:42:59.275Z,30.05
2022-12-16T20:45:45.673Z,29.20
2022-12-16T20:48:35.397Z,29.65
2022-12-16T20:51:26.548Z,30.20
2022-12-16T20:54:13.128Z,29.45
2022-12-16T20:56:58.636Z,30.15
2022-12-16T20:59:44.262Z,30.85
2022-12-16T21:02:38.874Z,29.40
2022-12-16T21:05:25.201Z,30.15
2022-12-16T21:08:10.652Z,28.85
2022-12-16T21:10:56.428Z,30.23
2022-12-16T21:13:42.780Z,29.50
2022-12-16T21:16:28.786Z,30.35
2022-12-16T21:19:15.172Z,29.08
2022-12-16T21:22:00.657Z,28.00
2022-12-16T21:24:46.523Z,28.50
2022-12-16T21:27:32.625Z,29.77
2022-12-16T21:30:18.537Z,28.52
2022-12-16T21:33:04.554Z,28.63
2022-12-16T21:35:50.254Z,29.40
2022-12-16T21:38:35.661Z,29.35
2022-12-16T21:41:21.156Z,30.75
2022-12-16T21:44:09.793Z,28.02
2022-12-16T21:46:55.344Z,27.20
2022-12-16T21:49:42.603Z,29.75
2022-12-16T21:52:28.526Z,27.67
2022-12-16T21:55:14.086Z,27.90
2022-12-16T21:58:01.851Z,29.70
2022-12-16T22:00:47.411Z,26.98
2022-12-16T22:03:33.592Z,27.63
2022-12-16T22:06:19.185Z,29.33
2022-12-16T22:09:04.765Z,29.23
2022-12-16T22:11:50.303Z,28.77
2022-12-16T22:14:36.917Z,27.67
2022-12-16T22:17:22.672Z,29.05
2022-12-16T22:20:08.398Z,28.83
2022-12-16T22:23:07.970Z,30.23
2022-12-16T22:26:29.898Z,29.08
2022-12-16T22:29:16.179Z,30.70
2022-12-16T22:32:01.668Z,31.33
2022-12-16T22:34:47.381Z,31.02
2022-12-16T22:37:32.941Z,30.77
2022-12-16T22:40:22.776Z,29.75
2022-12-16T22:43:10.943Z,30.02
2022-12-16T22:45:56.664Z,27.90
2022-12-16T22:48:42.264Z,28.52
2022-12-16T22:51:35.569Z,28.58
2022-12-16T22:54:21.224Z,28.30
2022-12-16T22:57:06.851Z,27.83
2022-12-16T22:59:53.255Z,26.92
2022-12-16T23:02:39.568Z,26.35
2022-12-16T23:08:31.088Z,30.50
2022-12-16T23:11:18.253Z,27.13
2022-12-16T23:14:04.019Z,26.80
2022-12-16T23:16:49.427Z,26.55
2022-12-16T23:19:35.405Z,27.55
2022-12-16T23:22:21.129Z,25.15
2022-12-16T23:25:06.839Z,26.08
2022-12-16T23:27:52.760Z,27.50
2022-12-16T23:32:29.631Z,27.02
2022-12-16T23:33:24.673Z,29.30
2022-12-16T23:36:10.761Z,27.55
2022-12-16T23:38:56.474Z,27.63
2022-12-16T23:41:42.174Z,27.42
2022-12-16T23:44:27.925Z,26.00
2022-12-16T23:47:13.343Z,24.45
2022-12-16T23:49:58.833Z,25.73
2022-12-16T23:52:44.151Z,25.98
2022-12-16T23:55:30.375Z,27.55
2022-12-16T23:58:20.966Z,27.65
